15:34
Airports
History
Links
Donate
Help keep this website running!
PayPal
Bitcoin
This page is community maintained. The information is intended for PC simulator navigation or reference.
Always use approved charts for navigation.
CAK3
DELTA HERITAGE AIR PARK
DELTA HERITAGE AIR PARK (CAK3)
Delta, British Columbia, Canada
(C)
Lat/Lng:49° 4' 43.55" N / 122° 56' 25.91" W
49.078764 / -122.94053
Elevation:10'ft / 3mMSL
ID / ICAO:CAK3
Runways:1
Longest:07-25
Grass 789m / 2,587ft
Controlled:Yes
Nearby Weather15:00 GMT 2018-02-19
Nearby weather at CYVR, Vancouver Intl located 13.6 nautical miles from CAK3
Altimeter: 30.24
Visibility: 30.0 statute miles
Wind: 5 knots (from 100°)
Temp: -5°c / 23°f
Humidity: 57.8%

METAR: CYVR 191500Z 10005KT 30SM FEW030 M05/M12 A3024 RMK SC1 SC TR SLP242

(Powered by phpweather)
Airport Radio Frequencies
Tower: 123.3
Nearby VORs <50NM
Nearby NDBs
Runway 07 / 25
Dimensions:788.6 x 22.9m 2587' x 75'ft
Surface:Grass
Runway 07 [A]Runway 25 [B]
Heading:090°TH 270°TH
Lat:
Lng:
49° 4' 43.55"N
122° 56' 45.51"W
49° 4' 43.55"N
122° 56' 6.31"W
User Notes and Comments
49° 4' 43.55" N / 122° 56' 25.91" W
Distance To
Airport ID:
Nearby Airports
(C) Vancouver/boundary Bay 3.0 NM
CZBB W 264°
(C) Vancouver Intl 13.6 NM
CYVR ( WX ) NW 306°
(C) Pitt Meadows 14.0 NM
CYPK NE 47°
(C) Langley 14.2 NM
CYNJ E 83°
(U) Fort Langley 18.6 NM
CBQ2 ENE 70°
(R) Meadow Mist 20.7 NM
WN35 SE 124°
(R) Horse Fly 21.6 NM
WA88 SE 126°
VFR Chart
Flight Planning at SkyVector.com